Time;durP1;ratioP1;P1;durP2;ratioP2;P2;SDS_P1;SDS_P2;PMS_P1;PMS_P2;Temp;Humidity;BMP_temperature;BMP_pressure;BME280_temperature;BME280_humidity;BME280_pressure;Samples;Min_cycle;Max_cycle;Signal;HPM_P1;HPM_P2
2021/08/02 00:01:28;;;;;;;12.90;6.05;;;14.30;99.90;;;;;;4991799;28;20026;-74
2021/08/02 00:04:03;;;;;;;14.38;6.57;;;14.20;99.90;;;;;;4991471;28;20066;-73
2021/08/02 00:06:37;;;;;;;17.48;7.70;;;14.30;99.90;;;;;;4973519;28;20153;-74
2021/08/02 00:09:07;;;;;;;14.15;7.18;;;14.40;99.90;;;;;;4974120;28;20433;-73
2021/08/02 00:11:38;;;;;;;11.90;7.47;;;14.40;99.90;;;;;;4991503;28;20026;-72
2021/08/02 00:14:06;;;;;;;12.50;7.53;;;14.40;99.90;;;;;;4991462;28;20077;-74
2021/08/02 00:16:34;;;;;;;15.02;8.10;;;14.50;99.90;;;;;;4991155;28;20030;-74
2021/08/02 00:19:00;;;;;;;13.73;7.72;;;14.40;99.90;;;;;;4991404;28;20015;-72
2021/08/02 00:21:26;;;;;;;15.98;8.38;;;14.40;99.90;;;;;;4991591;28;20362;-73
2021/08/02 00:23:52;;;;;;;8.40;7.60;;;14.50;99.90;;;;;;4994441;28;20413;-74
2021/08/02 00:26:19;;;;;;;15.55;7.97;;;14.40;99.90;;;;;;4994318;28;20548;-74
2021/08/02 00:28:45;;;;;;;22.08;7.85;;;14.30;99.90;;;;;;4995104;28;20040;-74
2021/08/02 00:31:12;;;;;;;16.58;9.32;;;14.40;99.90;;;;;;4977587;28;20117;-73
2021/08/02 00:33:38;;;;;;;19.85;8.52;;;14.40;99.90;;;;;;4994769;28;20019;-72
2021/08/02 00:36:08;;;;;;;13.13;8.88;;;14.40;99.90;;;;;;4994080;28;20026;-72
2021/08/02 00:39:14;;;;;;;15.77;8.93;;;14.40;99.90;;;;;;4994450;28;20061;-71
2021/08/02 00:42:02;;;;;;;11.60;7.95;;;14.40;99.90;;;;;;4994637;28;20552;-72
2021/08/02 00:44:49;;;;;;;10.48;7.43;;;14.40;99.90;;;;;;4994072;28;20066;-73
2021/08/02 00:47:22;;;;;;;7.40;6.15;;;14.40;99.90;;;;;;4994588;28;20034;-72
2021/08/02 00:49:56;;;;;;;10.70;6.40;;;14.30;99.90;;;;;;4994509;28;20505;-73
2021/08/02 00:52:25;;;;;;;8.55;5.85;;;14.30;99.90;;;;;;4977007;28;20144;-72
2021/08/02 00:54:52;;;;;;;12.48;6.60;;;14.30;99.90;;;;;;4994089;28;20417;-73
2021/08/02 00:57:20;;;;;;;11.48;6.57;;;14.30;99.90;;;;;;4977150;28;20027;-73
2021/08/02 00:59:48;;;;;;;8.15;7.30;;;14.50;99.90;;;;;;4994473;28;20101;-72
2021/08/02 01:02:14;;;;;;;14.30;6.80;;;14.50;99.90;;;;;;4994344;28;20022;-73
2021/08/02 01:04:43;;;;;;;16.80;7.55;;;14.60;99.90;;;;;;4995976;28;20101;-73
2021/08/02 01:07:08;;;;;;;12.05;5.03;;;14.60;99.90;;;;;;4999086;28;20029;-72
2021/08/02 01:09:39;;;;;;;12.45;5.07;;;14.40;99.90;;;;;;4994389;28;20397;-73
2021/08/02 01:12:10;;;;;;;7.60;5.10;;;14.30;99.90;;;;;;4994322;28;20101;-73
2021/08/02 01:14:37;;;;;;;8.75;6.03;;;14.30;99.90;;;;;;4993276;28;20531;-72
2021/08/02 01:17:08;;;;;;;9.85;6.53;;;14.50;99.90;;;;;;4994212;28;20034;-72
2021/08/02 01:19:34;;;;;;;15.02;7.40;;;14.50;99.90;;;;;;4994265;28;20087;-71
2021/08/02 01:22:00;;;;;;;8.10;5.78;;;14.60;99.90;;;;;;4994153;28;20396;-72
2021/08/02 01:24:27;;;;;;;9.57;5.85;;;14.50;99.90;;;;;;4993231;28;20018;-74
2021/08/02 01:26:58;;;;;;;9.77;6.47;;;14.50;99.90;;;;;;4993816;28;20669;-74
2021/08/02 01:30:02;;;;;;;7.30;6.55;;;14.60;99.90;;;;;;4993843;28;20034;-72
2021/08/02 01:32:28;;;;;;;11.10;6.63;;;14.50;99.90;;;;;;4993576;28;20477;-71
2021/08/02 01:34:54;;;;;;;10.70;5.72;;;14.60;99.90;;;;;;4992085;28;20054;-73
2021/08/02 01:37:20;;;;;;;8.05;6.20;;;14.60;99.90;;;;;;4996258;28;20065;-72
2021/08/02 01:39:53;;;;;;;8.80;5.30;;;14.70;99.90;;;;;;5004130;28;20026;-73
2021/08/02 01:42:19;;;;;;;16.95;5.72;;;14.60;99.90;;;;;;4994573;28;20117;-72
2021/08/02 01:44:45;;;;;;;7.07;5.07;;;14.70;99.90;;;;;;4993196;28;20126;-73
2021/08/02 01:47:17;;;;;;;7.53;5.43;;;14.60;99.90;;;;;;4993433;28;20040;-72
2021/08/02 01:49:54;;;;;;;9.02;6.35;;;14.50;99.90;;;;;;4993172;28;20468;-73
2021/08/02 01:52:45;;;;;;;14.70;6.40;;;14.50;99.90;;;;;;4975910;28;20125;-72
2021/08/02 01:55:19;;;;;;;8.98;5.40;;;14.60;99.90;;;;;;4992462;28;20381;-74
2021/08/02 01:58:00;;;;;;;10.90;5.30;;;14.60;99.90;;;;;;4993411;28;20098;-74
2021/08/02 02:00:29;;;;;;;6.45;5.00;;;14.60;99.90;;;;;;4993384;28;20014;-71
2021/08/02 02:03:10;;;;;;;10.10;5.38;;;14.70;99.90;;;;;;4992942;28;20520;-72
2021/08/02 02:05:37;;;;;;;9.93;5.85;;;14.60;99.90;;;;;;4992656;28;20030;-73
2021/08/02 02:08:11;;;;;;;9.02;5.43;;;14.60;99.90;;;;;;4993133;28;20088;-73
2021/08/02 02:10:41;;;;;;;13.55;5.20;;;14.70;99.90;;;;;;4993254;28;20030;-73
2021/08/02 02:13:14;;;;;;;9.98;4.60;;;14.60;99.90;;;;;;4992704;28;20034;-73
2021/08/02 02:15:43;;;;;;;6.30;3.85;;;14.60;99.90;;;;;;4992416;28;20019;-75
2021/08/02 02:18:10;;;;;;;6.00;4.82;;;14.60;99.90;;;;;;4992283;28;20366;-72
2021/08/02 02:20:36;;;;;;;8.15;4.80;;;14.70;99.90;;;;;;4992882;28;20023;-72
2021/08/02 02:23:03;;;;;;;11.07;5.10;;;14.70;99.90;;;;;;4992718;28;20041;-72
2021/08/02 02:25:29;;;;;;;11.70;5.90;;;14.70;99.90;;;;;;4974700;28;20428;-73
2021/08/02 02:27:55;;;;;;;9.38;5.47;;;14.70;99.90;;;;;;4992923;28;20027;-72
2021/08/02 02:30:20;;;;;;;9.13;5.75;;;14.70;99.90;;;;;;4992818;28;20030;-72
2021/08/02 02:32:47;;;;;;;13.95;4.50;;;14.70;99.90;;;;;;4992568;28;20397;-72
2021/08/02 02:35:13;;;;;;;6.28;5.18;;;14.60;99.90;;;;;;4991929;28;20407;-71
2021/08/02 02:37:40;;;;;;;10.23;5.28;;;14.70;99.90;;;;;;4992815;28;20070;-72
2021/08/02 02:40:06;;;;;;;10.93;5.60;;;14.80;99.90;;;;;;4992665;28;20023;-72
2021/08/02 02:42:33;;;;;;;12.88;5.20;;;14.80;99.90;;;;;;4992879;28;20038;-72
2021/08/02 02:45:00;;;;;;;7.40;5.85;;;14.70;99.90;;;;;;4992039;28;20126;-72
2021/08/02 02:47:27;;;;;;;8.70;6.00;;;14.70;99.90;;;;;;4992316;28;20041;-72
2021/08/02 02:49:54;;;;;;;7.07;5.30;;;14.70;99.90;;;;;;4992262;28;20030;-72
2021/08/02 02:52:21;;;;;;;8.50;5.35;;;14.70;99.90;;;;;;4992480;28;20062;-72
2021/08/02 02:54:48;;;;;;;8.52;4.85;;;14.70;99.90;;;;;;4991892;28;20026;-73
2021/08/02 02:57:15;;;;;;;6.70;5.07;;;14.70;99.90;;;;;;4975162;28;20022;-74
2021/08/02 02:59:41;;;;;;;12.45;5.60;;;14.70;99.90;;;;;;4992637;28;20025;-72
2021/08/02 03:02:07;;;;;;;12.15;5.88;;;14.80;99.90;;;;;;4992467;28;20401;-72
2021/08/02 03:04:38;;;;;;;6.55;5.53;;;14.90;99.90;;;;;;4991621;28;20046;-73
2021/08/02 03:07:06;;;;;;;14.98;6.03;;;14.90;99.90;;;;;;4992412;28;20038;-73
2021/08/02 03:09:35;;;;;;;5.85;5.32;;;14.90;99.90;;;;;;4992269;28;20121;-71
2021/08/02 03:12:01;;;;;;;9.60;5.60;;;14.80;99.90;;;;;;4992192;28;20431;-72
2021/08/02 03:14:27;;;;;;;11.00;6.22;;;14.90;99.90;;;;;;4973978;28;20105;-71
2021/08/02 03:16:53;;;;;;;10.80;5.63;;;14.80;99.90;;;;;;4991768;28;20563;-71
2021/08/02 03:19:19;;;;;;;12.43;6.43;;;14.80;99.90;;;;;;4991869;28;20018;-72
2021/08/02 03:21:44;;;;;;;9.32;6.03;;;14.80;99.90;;;;;;4992091;28;20026;-72
2021/08/02 03:24:13;;;;;;;11.80;5.88;;;14.80;99.90;;;;;;4992080;28;20027;-71
2021/08/02 03:26:51;;;;;;;6.28;4.97;;;14.80;99.90;;;;;;4991611;28;20168;-72
2021/08/02 03:29:26;;;;;;;7.55;5.68;;;14.80;99.90;;;;;;4991887;28;20477;-72
2021/08/02 03:32:16;;;;;;;12.27;5.63;;;14.70;99.90;;;;;;4991926;28;20031;-72
2021/08/02 03:34:45;;;;;;;7.07;4.97;;;14.80;99.90;;;;;;4991203;28;20493;-73
2021/08/02 03:37:15;;;;;;;12.00;5.90;;;14.80;99.90;;;;;;4991896;28;20030;-71
2021/08/02 03:39:44;;;;;;;15.57;6.25;;;14.80;99.90;;;;;;4991857;28;20022;-73
2021/08/02 03:42:12;;;;;;;13.18;6.80;;;14.80;99.90;;;;;;4992085;28;20084;-73
2021/08/02 03:44:38;;;;;;;12.63;6.75;;;14.80;99.90;;;;;;4973693;28;20062;-73
2021/08/02 03:47:04;;;;;;;13.52;6.43;;;14.90;99.90;;;;;;4992014;28;20089;-73
2021/08/02 03:49:31;;;;;;;10.02;5.72;;;14.90;99.90;;;;;;4992087;28;20033;-73
2021/08/02 03:52:01;;;;;;;6.38;5.68;;;14.90;99.90;;;;;;5002789;28;20499;-74
2021/08/02 03:54:29;;;;;;;8.15;5.55;;;14.70;99.90;;;;;;4993616;28;20034;-72
2021/08/02 03:56:56;;;;;;;6.22;5.38;;;14.70;99.90;;;;;;4992575;28;20050;-74
2021/08/02 03:59:23;;;;;;;10.70;5.13;;;14.70;99.90;;;;;;4995923;28;20396;-73
2021/08/02 04:01:49;;;;;;;6.18;4.90;;;14.70;99.90;;;;;;4995388;28;20033;-73
2021/08/02 04:04:15;;;;;;;5.78;4.60;;;14.50;99.90;;;;;;4994710;28;20451;-71
2021/08/02 04:06:41;;;;;;;8.90;4.80;;;14.50;99.90;;;;;;4977678;28;20053;-71
2021/08/02 04:09:09;;;;;;;8.98;4.25;;;14.40;99.90;;;;;;4995238;28;20481;-73
2021/08/02 04:11:35;;;;;;;7.05;3.95;;;14.40;99.90;;;;;;4977821;28;20057;-71
2021/08/02 04:14:01;;;;;;;6.28;4.43;;;14.40;99.90;;;;;;4995276;28;20037;-73
2021/08/02 04:16:27;;;;;;;4.90;4.40;;;14.50;99.90;;;;;;4994767;28;20018;-72
2021/08/02 04:18:53;;;;;;;7.72;3.83;;;14.50;99.90;;;;;;4984918;28;20340;-73
2021/08/02 04:21:19;;;;;;;6.70;3.75;;;14.50;99.90;;;;;;4972743;28;20034;-72
2021/08/02 04:23:45;;;;;;;6.20;3.75;;;14.50;99.90;;;;;;4974538;28;20038;-74
2021/08/02 04:26:12;;;;;;;4.22;3.90;;;14.50;99.90;;;;;;4975855;28;20031;-72
2021/08/02 04:28:42;;;;;;;6.72;4.50;;;14.60;99.90;;;;;;4979684;28;20038;-71
2021/08/02 04:31:09;;;;;;;7.78;3.63;;;14.70;99.90;;;;;;4975317;28;20030;-72
2021/08/02 04:33:34;;;;;;;6.07;3.50;;;14.70;99.90;;;;;;4975098;28;20019;-71
2021/08/02 04:36:00;;;;;;;8.95;3.50;;;14.70;99.90;;;;;;4974307;28;20425;-73
2021/08/02 04:38:26;;;;;;;7.28;3.53;;;14.70;99.90;;;;;;4961744;28;20024;-72
2021/08/02 04:40:52;;;;;;;5.93;3.72;;;14.70;99.90;;;;;;4955321;28;20023;-71
2021/08/02 04:43:17;;;;;;;5.75;3.92;;;14.70;99.90;;;;;;4963755;28;20174;-72
2021/08/02 04:45:43;;;;;;;5.30;3.10;;;14.70;99.90;;;;;;4974358;28;20080;-72
2021/08/02 04:48:09;;;;;;;4.15;3.60;;;14.80;99.90;;;;;;4974646;28;20081;-72
2021/08/02 04:50:34;;;;;;;5.78;3.50;;;14.80;99.90;;;;;;4974395;28;20030;-72
2021/08/02 04:53:00;;;;;;;6.75;3.30;;;14.80;99.90;;;;;;4974825;28;20039;-73
2021/08/02 04:55:25;;;;;;;11.45;2.97;;;14.90;99.90;;;;;;4974356;28;20085;-71
2021/08/02 04:57:51;;;;;;;5.95;3.28;;;15.10;99.90;;;;;;4974925;28;20137;-71
2021/08/02 05:00:17;;;;;;;6.22;3.65;;;15.20;99.90;;;;;;4956844;28;20117;-72
2021/08/02 05:02:43;;;;;;;7.00;3.10;;;15.50;99.90;;;;;;4957314;28;20053;-72
2021/08/02 05:05:09;;;;;;;4.68;3.63;;;15.40;99.90;;;;;;4956634;28;20077;-72
2021/08/02 05:07:34;;;;;;;8.20;3.30;;;15.40;99.90;;;;;;4974712;28;20037;-72
2021/08/02 05:10:01;;;;;;;5.18;3.40;;;15.40;99.90;;;;;;4957016;28;20035;-72
2021/08/02 05:12:26;;;;;;;5.55;3.10;;;15.40;99.90;;;;;;4975929;28;20022;-72
2021/08/02 05:14:52;;;;;;;3.25;2.60;;;15.30;99.90;;;;;;4948929;28;20126;-74
2021/08/02 05:17:18;;;;;;;4.18;3.45;;;15.30;99.90;;;;;;4955205;29;20032;-74
2021/08/02 05:19:43;;;;;;;3.75;2.85;;;15.20;99.90;;;;;;4954560;29;20050;-75
2021/08/02 05:22:09;;;;;;;6.22;2.90;;;15.10;99.90;;;;;;4954567;29;20398;-73
2021/08/02 05:24:35;;;;;;;4.32;3.45;;;14.90;99.90;;;;;;4954276;29;20038;-73
2021/08/02 05:27:00;;;;;;;3.70;3.13;;;15.10;99.90;;;;;;4954996;29;20474;-73
2021/08/02 05:29:26;;;;;;;5.95;3.40;;;15.10;99.90;;;;;;4954865;29;20027;-72
2021/08/02 05:31:52;;;;;;;9.60;4.10;;;15.00;99.90;;;;;;4954304;29;20121;-73
2021/08/02 05:34:18;;;;;;;8.38;3.63;;;15.10;99.90;;;;;;4953892;29;20035;-73
2021/08/02 05:36:44;;;;;;;6.22;3.28;;;15.00;99.90;;;;;;4954746;29;20185;-73
2021/08/02 05:39:10;;;;;;;5.25;3.35;;;15.10;99.90;;;;;;4954830;29;20031;-71
2021/08/02 05:41:36;;;;;;;5.70;3.47;;;15.10;99.90;;;;;;4936769;29;20027;-71
2021/08/02 05:44:02;;;;;;;3.28;3.08;;;15.00;99.90;;;;;;4968608;28;20054;-71
2021/08/02 05:46:28;;;;;;;6.95;3.65;;;15.10;99.90;;;;;;4973168;28;20105;-71
2021/08/02 05:48:53;;;;;;;5.10;3.13;;;15.20;99.90;;;;;;4973280;28;20046;-71
2021/08/02 05:51:19;;;;;;;6.63;3.60;;;15.10;99.90;;;;;;4969047;28;20486;-71
2021/08/02 05:53:45;;;;;;;8.15;3.35;;;15.10;99.90;;;;;;4956120;28;20034;-72
2021/08/02 05:56:11;;;;;;;20.77;4.45;;;15.10;99.90;;;;;;4955163;28;20058;-73
2021/08/02 05:58:38;;;;;;;17.17;4.43;;;15.20;99.90;;;;;;4973103;28;20034;-72
2021/08/02 06:01:03;;;;;;;61.13;6.75;;;15.10;99.90;;;;;;4973113;28;20031;-71
2021/08/02 06:03:29;;;;;;;25.35;4.43;;;15.20;99.90;;;;;;4955433;28;20398;-72
2021/08/02 06:05:55;;;;;;;35.65;5.80;;;15.30;99.90;;;;;;4955588;28;20061;-72
2021/08/02 06:08:21;;;;;;;15.25;3.92;;;15.30;99.90;;;;;;4973421;28;20481;-72
2021/08/02 06:10:46;;;;;;;15.13;3.30;;;15.30;99.90;;;;;;4971249;28;20030;-73
2021/08/02 06:13:12;;;;;;;17.13;3.17;;;15.30;99.90;;;;;;4969017;28;20023;-73
2021/08/02 06:15:38;;;;;;;14.23;3.67;;;15.30;99.90;;;;;;4972726;28;20034;-70
2021/08/02 06:18:03;;;;;;;16.38;3.75;;;15.30;99.90;;;;;;4955479;28;20134;-71
2021/08/02 06:20:29;;;;;;;4.70;2.42;;;15.30;99.90;;;;;;4972218;28;20514;-71
2021/08/02 06:22:55;;;;;;;10.68;2.92;;;15.30;99.90;;;;;;4972986;28;20485;-72
2021/08/02 06:25:20;;;;;;;3.75;2.67;;;15.60;99.90;;;;;;4972578;28;20540;-71
2021/08/02 06:27:46;;;;;;;5.32;2.10;;;15.70;99.90;;;;;;4973329;28;20473;-72
2021/08/02 06:30:12;;;;;;;11.55;3.38;;;15.50;99.90;;;;;;4969829;28;20031;-72
2021/08/02 06:32:38;;;;;;;11.82;3.15;;;15.70;99.90;;;;;;4953154;29;20031;-73
2021/08/02 06:35:04;;;;;;;8.00;2.40;;;15.90;99.90;;;;;;4952805;28;20035;-73
2021/08/02 06:37:29;;;;;;;8.93;2.33;;;16.10;99.90;;;;;;4953607;29;20034;-72
2021/08/02 06:39:55;;;;;;;14.43;3.45;;;16.30;99.90;;;;;;4953467;29;20397;-73
2021/08/02 06:42:21;;;;;;;7.43;2.60;;;16.40;99.90;;;;;;4953861;28;20039;-72
2021/08/02 06:44:47;;;;;;;4.22;2.17;;;16.30;99.90;;;;;;4971990;28;20540;-72
2021/08/02 06:47:13;;;;;;;4.05;2.70;;;16.20;99.90;;;;;;4972860;28;20174;-72
2021/08/02 06:49:38;;;;;;;4.20;2.25;;;16.20;99.90;;;;;;4954869;28;20035;-73
2021/08/02 06:52:04;;;;;;;11.45;2.40;;;16.30;99.90;;;;;;4955131;28;20073;-73
2021/08/02 06:54:30;;;;;;;2.53;2.20;;;16.20;99.90;;;;;;4971790;28;20027;-73
2021/08/02 06:56:55;;;;;;;3.40;2.22;;;16.00;99.90;;;;;;4971450;28;20023;-72
2021/08/02 06:59:21;;;;;;;6.10;2.42;;;16.00;99.90;;;;;;4972679;28;20114;-72
2021/08/02 07:01:47;;;;;;;3.42;2.20;;;16.40;99.90;;;;;;4972579;28;20034;-74
2021/08/02 07:04:12;;;;;;;7.97;2.33;;;16.80;99.90;;;;;;4954747;28;20086;-73
2021/08/02 07:06:41;;;;;;;5.82;2.30;;;17.00;99.90;;;;;;4972023;28;20485;-75
2021/08/02 07:09:10;;;;;;;8.45;2.28;;;17.10;99.90;;;;;;4972765;28;20110;-73
2021/08/02 07:11:36;;;;;;;11.32;2.45;;;17.20;99.90;;;;;;4955075;28;20031;-74
2021/08/02 07:14:02;;;;;;;2.22;2.03;;;17.30;99.90;;;;;;4986518;28;20685;-73
2021/08/02 07:16:27;;;;;;;2.30;1.80;;;17.30;99.90;;;;;;4991058;28;20544;-74
2021/08/02 07:18:53;;;;;;;3.50;2.05;;;17.20;99.90;;;;;;4990993;28;20126;-73
2021/08/02 07:21:20;;;;;;;6.68;2.38;;;17.10;99.90;;;;;;4993022;28;20405;-72
2021/08/02 07:23:46;;;;;;;4.25;1.95;;;17.20;99.90;;;;;;4994790;28;20467;-73
2021/08/02 07:26:12;;;;;;;5.53;1.67;;;17.20;99.90;;;;;;4992141;28;20115;-72
2021/08/02 07:28:38;;;;;;;4.53;1.83;;;17.70;99.90;;;;;;4991077;28;20114;-72
2021/08/02 07:31:04;;;;;;;4.57;1.90;;;17.90;99.90;;;;;;4952622;28;20086;-72
2021/08/02 07:33:30;;;;;;;4.10;1.70;;;17.90;99.90;;;;;;4955595;29;20031;-72
2021/08/02 07:35:56;;;;;;;4.35;1.70;;;17.70;99.90;;;;;;4956117;29;20414;-73
2021/08/02 07:38:22;;;;;;;6.07;2.08;;;17.80;99.90;;;;;;4956583;29;20031;-73
2021/08/02 07:40:47;;;;;;;3.55;1.92;;;17.60;99.90;;;;;;4956384;29;20031;-74
2021/08/02 07:43:13;;;;;;;3.55;1.45;;;17.80;99.90;;;;;;4963999;28;20026;-74
2021/08/02 07:45:39;;;;;;;4.45;1.60;;;18.00;99.90;;;;;;4975030;28;20038;-74
2021/08/02 07:48:05;;;;;;;3.88;2.08;;;18.10;99.90;;;;;;4976127;28;20034;-73
2021/08/02 07:50:30;;;;;;;2.50;1.70;;;18.20;99.90;;;;;;4975623;28;20109;-72
2021/08/02 07:52:56;;;;;;;4.03;1.90;;;17.90;99.90;;;;;;4975484;28;20389;-73
2021/08/02 07:55:22;;;;;;;3.70;1.63;;;17.80;99.90;;;;;;4974750;28;20031;-73
2021/08/02 07:57:48;;;;;;;1.42;1.33;;;17.80;99.90;;;;;;4976017;28;20057;-73
2021/08/02 08:00:16;;;;;;;2.08;1.67;;;18.10;99.90;;;;;;4975429;28;20057;-74
2021/08/02 08:02:46;;;;;;;4.10;1.45;;;18.50;99.90;;;;;;4975711;28;20473;-72
2021/08/02 08:05:13;;;;;;;7.35;1.90;;;18.60;99.90;;;;;;4974399;28;20117;-72
2021/08/02 08:07:49;;;;;;;1.90;1.42;;;18.90;99.90;;;;;;4975595;28;20054;-72
2021/08/02 08:10:19;;;;;;;2.25;1.50;;;19.10;99.90;;;;;;4958136;28;20046;-73
2021/08/02 08:12:45;;;;;;;3.75;1.85;;;19.10;99.90;;;;;;4978804;28;20103;-72
2021/08/02 08:15:11;;;;;;;3.97;1.40;;;18.90;99.90;;;;;;4993542;28;20127;-73
2021/08/02 08:17:37;;;;;;;1.90;1.30;;;18.80;99.90;;;;;;4994891;28;20034;-74
2021/08/02 08:20:05;;;;;;;2.55;2.10;;;18.40;99.90;;;;;;4994503;28;20131;-73
2021/08/02 08:22:31;;;;;;;2.92;1.60;;;18.70;99.90;;;;;;4994738;28;20030;-71
2021/08/02 08:24:57;;;;;;;1.67;1.27;;;19.20;99.90;;;;;;4993884;28;20022;-71
2021/08/02 08:27:22;;;;;;;3.67;1.60;;;19.60;99.90;;;;;;4994443;28;20443;-73
2021/08/02 08:29:48;;;;;;;3.63;1.15;;;20.10;99.90;;;;;;4994698;28;20595;-73
2021/08/02 08:32:13;;;;;;;2.65;1.10;;;20.20;99.90;;;;;;4994565;28;20026;-72
2021/08/02 08:34:39;;;;;;;2.70;1.10;;;20.50;99.90;;;;;;4993323;28;20030;-71
2021/08/02 08:37:05;;;;;;;2.92;1.27;;;20.20;99.90;;;;;;4994511;28;20019;-70
2021/08/02 08:39:30;;;;;;;7.63;1.35;;;20.10;99.90;;;;;;4994477;28;20461;-70
2021/08/02 08:41:58;;;;;;;1.50;1.35;;;20.20;99.90;;;;;;4994149;28;20381;-73
2021/08/02 08:44:27;;;;;;;3.05;1.13;;;20.30;99.90;;;;;;4993075;28;20030;-72
2021/08/02 08:46:52;;;;;;;2.75;1.25;;;20.00;99.90;;;;;;4994507;28;20077;-72
2021/08/02 08:49:18;;;;;;;4.95;1.40;;;20.00;99.90;;;;;;4994163;28;20034;-73
2021/08/02 08:51:44;;;;;;;3.38;1.10;;;20.00;99.90;;;;;;4994282;28;20041;-71
2021/08/02 08:54:10;;;;;;;5.82;1.40;;;20.20;99.90;;;;;;4994165;28;20069;-73
2021/08/02 08:56:36;;;;;;;2.22;1.40;;;20.00;99.90;;;;;;4994000;28;20448;-71
2021/08/02 08:59:02;;;;;;;2.05;1.33;;;20.10;99.90;;;;;;4994626;28;20026;-72
2021/08/02 09:01:29;;;;;;;1.55;1.10;;;20.20;99.90;;;;;;4994025;28;20469;-72
2021/08/02 09:03:57;;;;;;;2.45;1.20;;;20.50;99.90;;;;;;4994106;28;20034;-72
2021/08/02 09:06:23;;;;;;;2.25;1.33;;;20.70;99.90;;;;;;4993775;28;20018;-72
2021/08/02 09:08:49;;;;;;;1.23;0.93;;;21.20;99.90;;;;;;4975044;28;20106;-71
2021/08/02 09:11:27;;;;;;;1.95;1.00;;;21.40;99.90;;;;;;4974855;28;20102;-72
2021/08/02 09:13:54;;;;;;;3.92;1.08;;;22.00;99.90;;;;;;4970253;28;20022;-72
2021/08/02 09:16:25;;;;;;;2.25;1.20;;;20.60;99.90;;;;;;4976562;28;20026;-72
2021/08/02 09:19:12;;;;;;;2.40;1.40;;;20.70;99.90;;;;;;4993656;28;20023;-72
2021/08/02 09:21:46;;;;;;;1.23;0.90;;;21.00;99.90;;;;;;4993479;28;20033;-72
2021/08/02 09:24:12;;;;;;;1.33;0.90;;;21.00;99.90;;;;;;4993771;28;20037;-72
2021/08/02 09:26:39;;;;;;;1.55;1.02;;;21.70;99.90;;;;;;4992854;28;20046;-72
2021/08/02 09:29:06;;;;;;;2.63;0.80;;;21.80;99.90;;;;;;4993503;28;20030;-72
2021/08/02 09:31:36;;;;;;;2.28;1.02;;;21.70;99.90;;;;;;4993278;28;20037;-72
2021/08/02 09:34:06;;;;;;;2.28;0.90;;;21.90;99.90;;;;;;4993072;28;20030;-70
2021/08/02 09:36:53;;;;;;;1.77;0.95;;;21.90;99.90;;;;;;4992535;28;20037;-71
2021/08/02 09:39:19;;;;;;;2.35;1.23;;;21.80;99.90;;;;;;4993484;28;20023;-70
2021/08/02 09:41:45;;;;;;;4.82;1.00;;;22.30;99.90;;;;;;4993032;28;20031;-72
2021/08/02 09:44:22;;;;;;;0.60;0.60;;;23.50;99.90;;;;;;4993037;28;20056;-71
2021/08/02 09:46:59;;;;;;;1.67;0.93;;;23.60;99.90;;;;;;4993096;28;20030;-71
2021/08/02 09:49:26;;;;;;;2.83;1.10;;;23.70;99.90;;;;;;4992877;28;20113;-71
2021/08/02 09:51:54;;;;;;;1.00;0.88;;;23.20;99.90;;;;;;4992754;28;20062;-71
2021/08/02 09:54:23;;;;;;;1.48;1.10;;;22.70;99.90;;;;;;4992019;28;20084;-71
2021/08/02 09:56:51;;;;;;;0.88;0.75;;;21.80;99.90;;;;;;4992709;28;20038;-71
2021/08/02 09:59:17;;;;;;;1.13;1.02;;;21.90;99.90;;;;;;4992957;28;20023;-70
2021/08/02 10:01:43;;;;;;;3.83;1.05;;;21.70;99.90;;;;;;4993116;28;20385;-70
2021/08/02 10:04:11;;;;;;;1.50;0.90;;;21.70;99.90;;;;;;4992749;28;20033;-70
2021/08/02 10:06:37;;;;;;;1.20;0.98;;;21.90;99.90;;;;;;4990111;28;20540;-73
2021/08/02 10:09:03;;;;;;;3.10;1.08;;;22.10;99.90;;;;;;4973355;28;20031;-72
2021/08/02 10:11:31;;;;;;;2.25;1.00;;;21.90;99.90;;;;;;4972671;28;20480;-71
2021/08/02 10:13:56;;;;;;;1.85;1.10;;;21.90;99.90;;;;;;4984769;28;20027;-72
2021/08/02 10:16:28;;;;;;;3.00;1.05;;;21.30;99.90;;;;;;4969883;28;20042;-70
2021/08/02 10:19:02;;;;;;;2.40;1.00;;;21.10;99.90;;;;;;4973111;28;20394;-71
2021/08/02 10:21:44;;;;;;;2.90;1.42;;;21.30;99.90;;;;;;4971273;28;20030;-71
2021/08/02 10:24:17;;;;;;;1.20;1.10;;;21.20;99.90;;;;;;4973224;28;20054;-70
2021/08/02 10:27:02;;;;;;;1.38;1.02;;;21.30;99.90;;;;;;4972763;28;20023;-71
2021/08/02 10:29:41;;;;;;;2.42;1.20;;;20.80;99.90;;;;;;4973141;28;20367;-73
2021/08/02 10:32:24;;;;;;;1.95;1.27;;;20.60;99.90;;;;;;4973155;28;20040;-72
2021/08/02 10:34:55;;;;;;;1.83;1.60;;;20.10;99.90;;;;;;4935828;29;20023;-72
2021/08/02 10:37:37;;;;;;;1.65;1.20;;;20.20;99.90;;;;;;4953417;29;20051;-71
2021/08/02 10:40:08;;;;;;;3.67;1.40;;;20.00;99.90;;;;;;4953321;29;20031;-72
2021/08/02 10:43:00;;;;;;;2.95;1.58;;;19.20;99.90;;;;;;4958393;28;20063;-72
2021/08/02 10:45:32;;;;;;;3.72;1.45;;;18.90;99.90;;;;;;4976358;28;20045;-72
2021/08/02 10:47:58;;;;;;;2.17;1.48;;;18.90;99.90;;;;;;4972692;28;20031;-73
2021/08/02 10:50:30;;;;;;;1.38;1.20;;;19.30;99.90;;;;;;4972464;28;20454;-73
2021/08/02 10:52:56;;;;;;;4.43;1.08;;;19.60;99.90;;;;;;4972747;28;20033;-72
2021/08/02 10:55:25;;;;;;;1.60;1.50;;;19.80;99.90;;;;;;4971625;28;20797;-70
2021/08/02 10:58:00;;;;;;;3.60;1.45;;;20.10;99.90;;;;;;4970203;28;20023;-73
2021/08/02 11:00:28;;;;;;;2.92;1.17;;;20.40;99.90;;;;;;4967186;28;20079;-72
2021/08/02 11:02:55;;;;;;;3.65;1.17;;;20.10;99.90;;;;;;4981632;28;20022;-72
2021/08/02 11:05:23;;;;;;;1.40;1.20;;;20.60;99.90;;;;;;4972019;28;20023;-71
2021/08/02 11:07:49;;;;;;;1.63;0.85;;;20.10;99.90;;;;;;4972757;28;20101;-73
2021/08/02 11:10:16;;;;;;;1.05;0.90;;;20.60;99.90;;;;;;4972700;28;20031;-73
2021/08/02 11:12:46;;;;;;;1.40;0.60;;;21.40;99.90;;;;;;4976124;28;20366;-73
2021/08/02 11:15:12;;;;;;;0.70;0.70;;;21.70;99.90;;;;;;4978629;28;20089;-72
2021/08/02 11:17:48;;;;;;;2.80;0.90;;;22.40;99.90;;;;;;4972823;28;20027;-72
2021/08/02 11:20:14;;;;;;;1.92;0.70;;;23.10;99.90;;;;;;4972185;28;20023;-72
2021/08/02 11:22:54;;;;;;;1.63;0.80;;;23.20;99.90;;;;;;4972519;28;20026;-71
2021/08/02 11:25:22;;;;;;;1.42;0.50;;;24.40;99.90;;;;;;4972059;28;20019;-73
2021/08/02 11:27:59;;;;;;;0.60;0.60;;;24.80;99.90;;;;;;4972617;28;20038;-73
2021/08/02 11:30:26;;;;;;;1.05;0.82;;;24.90;99.90;;;;;;4972365;28;20029;-73
2021/08/02 11:32:51;;;;;;;1.27;0.77;;;25.20;99.90;;;;;;4972458;28;20041;-73
2021/08/02 11:35:17;;;;;;;0.68;0.63;;;26.30;98.80;;;;;;4984564;23;20969;-70
2021/08/02 11:37:50;;;;;;;2.53;0.70;;;26.10;97.50;;;;;;4981004;28;20023;-71
2021/08/02 11:40:19;;;;;;;1.60;0.90;;;26.00;98.50;;;;;;4991865;28;20473;-70
2021/08/02 11:42:50;;;;;;;1.20;0.77;;;23.80;98.30;;;;;;4992069;28;20026;-70
2021/08/02 11:45:17;;;;;;;1.08;0.90;;;23.60;99.50;;;;;;4992521;28;20081;-70
2021/08/02 11:47:45;;;;;;;2.20;0.90;;;23.10;99.90;;;;;;4995810;28;20456;-72
2021/08/02 11:50:12;;;;;;;1.10;1.00;;;24.00;99.90;;;;;;4992705;28;20535;-72
2021/08/02 11:52:39;;;;;;;2.03;0.80;;;24.60;99.90;;;;;;4973422;28;20095;-73
2021/08/02 11:55:07;;;;;;;1.52;0.90;;;23.70;99.50;;;;;;4972368;28;20362;-73
2021/08/02 11:57:34;;;;;;;1.45;1.08;;;23.00;99.90;;;;;;4973528;28;20014;-70
2021/08/02 12:00:07;;;;;;;1.20;1.10;;;22.40;99.90;;;;;;4976711;28;20069;-70
2021/08/02 12:02:34;;;;;;;3.55;1.05;;;22.60;99.90;;;;;;4972676;28;20031;-70
2021/08/02 12:05:00;;;;;;;1.02;1.00;;;22.90;99.90;;;;;;4972037;28;20041;-71
2021/08/02 12:07:32;;;;;;;1.92;0.90;;;23.70;99.90;;;;;;4994599;28;20066;-71
2021/08/02 12:10:15;;;;;;;;;;;23.80;99.90;;;;;;4992379;28;20432;-70
2021/08/02 12:12:42;;;;;;;3.53;0.82;;;23.40;99.90;;;;;;4991027;28;19952;-71
2021/08/02 12:15:09;;;;;;;1.75;1.00;;;24.60;99.90;;;;;;4994778;28;20084;-71
2021/08/02 12:17:56;;;;;;;0.70;0.70;;;25.10;98.70;;;;;;4994684;28;20022;-71
2021/08/02 12:20:36;;;;;;;0.93;0.90;;;24.90;99.50;;;;;;4996028;28;20027;-71
2021/08/02 12:23:04;;;;;;;1.30;0.80;;;25.40;99.30;;;;;;4995748;28;20550;-72
2021/08/02 12:25:36;;;;;;;1.23;1.13;;;24.50;98.70;;;;;;4994296;28;20033;-69
2021/08/02 12:28:02;;;;;;;2.95;1.00;;;24.00;99.70;;;;;;4987439;28;20425;-71
2021/08/02 12:30:28;;;;;;;1.23;0.90;;;23.60;99.90;;;;;;4972568;28;20026;-71
2021/08/02 12:32:54;;;;;;;4.65;1.23;;;23.60;99.60;;;;;;4973997;28;20417;-70
2021/08/02 12:35:20;;;;;;;1.85;1.10;;;23.30;99.90;;;;;;4979134;28;20030;-70
2021/08/02 12:37:46;;;;;;;2.78;1.00;;;24.20;99.90;;;;;;5015105;28;20030;-71
2021/08/02 12:40:16;;;;;;;0.95;0.82;;;24.70;99.90;;;;;;5004127;28;20073;-70
2021/08/02 12:42:47;;;;;;;3.55;0.95;;;25.20;99.90;;;;;;4981431;28;20056;-71
2021/08/02 12:45:14;;;;;;;1.27;0.80;;;24.60;99.20;;;;;;4973733;28;20432;-71
2021/08/02 12:47:40;;;;;;;1.17;0.90;;;24.80;99.90;;;;;;4975416;28;20034;-71
2021/08/02 12:50:08;;;;;;;0.75;0.68;;;25.60;99.00;;;;;;4975563;28;20031;-71
2021/08/02 12:52:35;;;;;;;1.05;0.85;;;26.40;98.50;;;;;;4975155;28;20031;-70